West Akron, Ohio
Current Conditions -  °F | °C
As of 7:54 AM on Sunday 23 Nov 2014 (Local Time) from KAKR Reporting Station
Overcast Overcast  
Wind Chill: 40°   Ceiling: 5000
Heat Index: 44°   Visibility: 10mi
Dew Point: 40°   Wind: 7mph
Humidity: 85%   Direction: 180°S
Pressure: 30.03"   Gusts: NA
Location:  41.0707°N, 81.5458°W
Report Text: KAKR 231254Z AUTO 18006KT 10SM OVC050 07/04 A3003 RMK AO2 RAE45 SLP172 P0000 T00670044
Loading
Personal Weather Stations






























Interactive Weather Map New forecast layout! Learn more

10-Day Weather Forecast

Advertisements
Track Severe Weather on mobile